sensor_id;sensor_type;location;lat;lon;timestamp;P1;durP1;ratioP1;P2;durP2;ratioP2
23718;SDS011;43322;52.230;5.702;2023-02-11T00:01:04;20.05;;;6.50;;
23718;SDS011;43322;52.230;5.702;2023-02-11T00:03:32;26.55;;;7.07;;
23718;SDS011;43322;52.230;5.702;2023-02-11T00:05:59;25.17;;;6.13;;
23718;SDS011;43322;52.230;5.702;2023-02-11T00:08:28;21.60;;;6.32;;
23718;SDS011;43322;52.230;5.702;2023-02-11T00:10:55;20.08;;;5.53;;
23718;SDS011;43322;52.230;5.702;2023-02-11T00:13:23;20.67;;;6.60;;
23718;SDS011;43322;52.230;5.702;2023-02-11T00:15:50;22.73;;;5.93;;
23718;SDS011;43322;52.230;5.702;2023-02-11T00:18:18;19.08;;;6.10;;
23718;SDS011;43322;52.230;5.702;2023-02-11T00:20:45;24.00;;;6.95;;
23718;SDS011;43322;52.230;5.702;2023-02-11T00:23:12;22.80;;;6.82;;
23718;SDS011;43322;52.230;5.702;2023-02-11T00:25:40;16.98;;;6.50;;
23718;SDS011;43322;52.230;5.702;2023-02-11T00:28:09;20.08;;;6.00;;
23718;SDS011;43322;52.230;5.702;2023-02-11T00:30:36;25.33;;;6.78;;
23718;SDS011;43322;52.230;5.702;2023-02-11T00:33:03;17.73;;;6.05;;
23718;SDS011;43322;52.230;5.702;2023-02-11T00:35:30;20.50;;;5.97;;
23718;SDS011;43322;52.230;5.702;2023-02-11T00:37:57;20.90;;;5.78;;
23718;SDS011;43322;52.230;5.702;2023-02-11T00:40:24;21.23;;;5.82;;
23718;SDS011;43322;52.230;5.702;2023-02-11T00:42:52;18.50;;;5.95;;
23718;SDS011;43322;52.230;5.702;2023-02-11T00:45:19;30.25;;;6.47;;
23718;SDS011;43322;52.230;5.702;2023-02-11T00:47:46;19.90;;;5.47;;
23718;SDS011;43322;52.230;5.702;2023-02-11T00:50:13;17.77;;;5.38;;
23718;SDS011;43322;52.230;5.702;2023-02-11T00:52:40;26.42;;;5.75;;
23718;SDS011;43322;52.230;5.702;2023-02-11T00:55:07;17.50;;;5.65;;
23718;SDS011;43322;52.230;5.702;2023-02-11T00:57:34;23.75;;;5.65;;
23718;SDS011;43322;52.230;5.702;2023-02-11T01:00:02;23.85;;;5.97;;
23718;SDS011;43322;52.230;5.702;2023-02-11T01:02:30;27.92;;;6.88;;
23718;SDS011;43322;52.230;5.702;2023-02-11T01:04:57;19.48;;;5.25;;
23718;SDS011;43322;52.230;5.702;2023-02-11T01:07:24;16.27;;;4.85;;
23718;SDS011;43322;52.230;5.702;2023-02-11T01:09:51;32.53;;;6.45;;
23718;SDS011;43322;52.230;5.702;2023-02-11T01:12:18;22.38;;;5.53;;
23718;SDS011;43322;52.230;5.702;2023-02-11T01:14:45;17.88;;;4.97;;
23718;SDS011;43322;52.230;5.702;2023-02-11T01:17:14;24.67;;;5.85;;
23718;SDS011;43322;52.230;5.702;2023-02-11T01:19:41;22.63;;;4.80;;
23718;SDS011;43322;52.230;5.702;2023-02-11T01:22:08;25.58;;;5.90;;
23718;SDS011;43322;52.230;5.702;2023-02-11T01:24:35;23.75;;;5.97;;
23718;SDS011;43322;52.230;5.702;2023-02-11T01:27:02;20.58;;;5.47;;
23718;SDS011;43322;52.230;5.702;2023-02-11T01:29:28;16.23;;;5.07;;
23718;SDS011;43322;52.230;5.702;2023-02-11T01:31:55;25.77;;;5.63;;
23718;SDS011;43322;52.230;5.702;2023-02-11T01:34:24;29.90;;;6.80;;
23718;SDS011;43322;52.230;5.702;2023-02-11T01:36:55;28.42;;;5.60;;
23718;SDS011;43322;52.230;5.702;2023-02-11T01:39:23;26.90;;;5.72;;
23718;SDS011;43322;52.230;5.702;2023-02-11T01:41:50;23.42;;;5.75;;
23718;SDS011;43322;52.230;5.702;2023-02-11T01:44:21;28.92;;;6.38;;
23718;SDS011;43322;52.230;5.702;2023-02-11T01:46:49;22.75;;;6.38;;
23718;SDS011;43322;52.230;5.702;2023-02-11T01:49:18;23.40;;;5.70;;
23718;SDS011;43322;52.230;5.702;2023-02-11T01:51:49;25.33;;;6.75;;
23718;SDS011;43322;52.230;5.702;2023-02-11T01:54:21;24.70;;;7.03;;
23718;SDS011;43322;52.230;5.702;2023-02-11T01:57:07;30.05;;;6.78;;
23718;SDS011;43322;52.230;5.702;2023-02-11T01:59:49;25.48;;;6.70;;
23718;SDS011;43322;52.230;5.702;2023-02-11T02:02:23;24.05;;;6.25;;
23718;SDS011;43322;52.230;5.702;2023-02-11T02:04:57;19.77;;;5.85;;
23718;SDS011;43322;52.230;5.702;2023-02-11T02:07:32;23.75;;;6.35;;
23718;SDS011;43322;52.230;5.702;2023-02-11T02:10:04;24.50;;;6.30;;
23718;SDS011;43322;52.230;5.702;2023-02-11T02:12:34;20.80;;;6.43;;
23718;SDS011;43322;52.230;5.702;2023-02-11T02:15:18;32.10;;;6.88;;
23718;SDS011;43322;52.230;5.702;2023-02-11T02:17:56;25.70;;;6.78;;
23718;SDS011;43322;52.230;5.702;2023-02-11T02:20:49;24.98;;;6.13;;
23718;SDS011;43322;52.230;5.702;2023-02-11T02:26:56;20.05;;;5.80;;
23718;SDS011;43322;52.230;5.702;2023-02-11T02:32:43;25.98;;;6.53;;
23718;SDS011;43322;52.230;5.702;2023-02-11T02:35:26;30.88;;;6.35;;
23718;SDS011;43322;52.230;5.702;2023-02-11T02:37:59;20.98;;;6.25;;
23718;SDS011;43322;52.230;5.702;2023-02-11T02:40:30;28.90;;;6.55;;
23718;SDS011;43322;52.230;5.702;2023-02-11T02:43:00;34.30;;;6.63;;
23718;SDS011;43322;52.230;5.702;2023-02-11T02:45:28;29.17;;;6.68;;
23718;SDS011;43322;52.230;5.702;2023-02-11T02:47:56;29.30;;;6.40;;
23718;SDS011;43322;52.230;5.702;2023-02-11T02:50:25;31.40;;;9.38;;
23718;SDS011;43322;52.230;5.702;2023-02-11T02:52:57;26.70;;;6.68;;
23718;SDS011;43322;52.230;5.702;2023-02-11T02:55:45;27.27;;;7.38;;
23718;SDS011;43322;52.230;5.702;2023-02-11T02:58:31;26.63;;;7.68;;
23718;SDS011;43322;52.230;5.702;2023-02-11T03:01:16;28.65;;;7.80;;
23718;SDS011;43322;52.230;5.702;2023-02-11T03:03:53;24.65;;;7.10;;
23718;SDS011;43322;52.230;5.702;2023-02-11T03:06:29;27.08;;;7.70;;
23718;SDS011;43322;52.230;5.702;2023-02-11T03:09:00;33.22;;;8.20;;
23718;SDS011;43322;52.230;5.702;2023-02-11T03:11:31;19.80;;;7.35;;
23718;SDS011;43322;52.230;5.702;2023-02-11T03:13:59;23.85;;;7.68;;
23718;SDS011;43322;52.230;5.702;2023-02-11T03:16:28;22.90;;;7.50;;
23718;SDS011;43322;52.230;5.702;2023-02-11T03:19:02;28.90;;;7.68;;
23718;SDS011;43322;52.230;5.702;2023-02-11T03:21:34;25.50;;;8.02;;
23718;SDS011;43322;52.230;5.702;2023-02-11T03:24:05;33.28;;;8.45;;
23718;SDS011;43322;52.230;5.702;2023-02-11T03:26:36;25.27;;;7.50;;
23718;SDS011;43322;52.230;5.702;2023-02-11T03:29:06;24.90;;;7.60;;
23718;SDS011;43322;52.230;5.702;2023-02-11T03:31:40;19.27;;;7.15;;
23718;SDS011;43322;52.230;5.702;2023-02-11T03:34:18;20.67;;;7.50;;
23718;SDS011;43322;52.230;5.702;2023-02-11T03:36:52;27.13;;;7.30;;
23718;SDS011;43322;52.230;5.702;2023-02-11T03:39:23;25.15;;;7.28;;
23718;SDS011;43322;52.230;5.702;2023-02-11T03:41:54;23.88;;;7.55;;
23718;SDS011;43322;52.230;5.702;2023-02-11T03:44:24;27.25;;;8.27;;
23718;SDS011;43322;52.230;5.702;2023-02-11T03:46:53;27.40;;;7.93;;
23718;SDS011;43322;52.230;5.702;2023-02-11T03:49:23;17.58;;;7.65;;
23718;SDS011;43322;52.230;5.702;2023-02-11T03:51:52;27.33;;;7.97;;
23718;SDS011;43322;52.230;5.702;2023-02-11T03:54:23;18.80;;;7.68;;
23718;SDS011;43322;52.230;5.702;2023-02-11T03:56:55;27.10;;;8.63;;
23718;SDS011;43322;52.230;5.702;2023-02-11T03:59:24;21.88;;;8.13;;
23718;SDS011;43322;52.230;5.702;2023-02-11T04:01:51;20.58;;;7.82;;
23718;SDS011;43322;52.230;5.702;2023-02-11T04:04:18;28.20;;;9.15;;
23718;SDS011;43322;52.230;5.702;2023-02-11T04:06:47;28.17;;;8.48;;
23718;SDS011;43322;52.230;5.702;2023-02-11T04:09:14;25.00;;;7.50;;
23718;SDS011;43322;52.230;5.702;2023-02-11T04:11:42;16.92;;;7.25;;
23718;SDS011;43322;52.230;5.702;2023-02-11T04:14:08;35.20;;;9.02;;
23718;SDS011;43322;52.230;5.702;2023-02-11T04:16:35;29.67;;;9.35;;
23718;SDS011;43322;52.230;5.702;2023-02-11T04:19:02;35.08;;;8.70;;
23718;SDS011;43322;52.230;5.702;2023-02-11T04:21:29;28.00;;;9.30;;
23718;SDS011;43322;52.230;5.702;2023-02-11T04:23:57;26.33;;;8.95;;
23718;SDS011;43322;52.230;5.702;2023-02-11T04:26:24;30.55;;;9.88;;
23718;SDS011;43322;52.230;5.702;2023-02-11T04:28:51;26.38;;;9.43;;
23718;SDS011;43322;52.230;5.702;2023-02-11T04:31:18;35.33;;;10.45;;
23718;SDS011;43322;52.230;5.702;2023-02-11T04:33:45;36.38;;;10.40;;
23718;SDS011;43322;52.230;5.702;2023-02-11T04:36:12;27.23;;;10.18;;
23718;SDS011;43322;52.230;5.702;2023-02-11T04:38:39;27.55;;;9.98;;
23718;SDS011;43322;52.230;5.702;2023-02-11T04:41:07;31.05;;;10.70;;
23718;SDS011;43322;52.230;5.702;2023-02-11T04:43:34;34.92;;;10.73;;
23718;SDS011;43322;52.230;5.702;2023-02-11T04:46:01;32.47;;;10.68;;
23718;SDS011;43322;52.230;5.702;2023-02-11T04:48:28;29.35;;;10.82;;
23718;SDS011;43322;52.230;5.702;2023-02-11T04:50:55;31.15;;;11.05;;
23718;SDS011;43322;52.230;5.702;2023-02-11T04:53:21;29.52;;;11.32;;
23718;SDS011;43322;52.230;5.702;2023-02-11T04:55:48;27.30;;;11.18;;
23718;SDS011;43322;52.230;5.702;2023-02-11T04:58:17;35.85;;;12.65;;
23718;SDS011;43322;52.230;5.702;2023-02-11T05:00:45;30.13;;;12.48;;
23718;SDS011;43322;52.230;5.702;2023-02-11T05:03:12;32.65;;;12.35;;
23718;SDS011;43322;52.230;5.702;2023-02-11T05:05:39;38.70;;;13.25;;
23718;SDS011;43322;52.230;5.702;2023-02-11T05:08:07;33.15;;;12.57;;
23718;SDS011;43322;52.230;5.702;2023-02-11T05:10:34;36.92;;;12.48;;
23718;SDS011;43322;52.230;5.702;2023-02-11T05:13:02;35.15;;;14.30;;
23718;SDS011;43322;52.230;5.702;2023-02-11T05:15:30;35.25;;;14.20;;
23718;SDS011;43322;52.230;5.702;2023-02-11T05:17:57;32.65;;;14.05;;
23718;SDS011;43322;52.230;5.702;2023-02-11T05:20:24;37.45;;;15.00;;
23718;SDS011;43322;52.230;5.702;2023-02-11T05:22:51;39.85;;;14.50;;
23718;SDS011;43322;52.230;5.702;2023-02-11T05:25:18;39.88;;;15.65;;
23718;SDS011;43322;52.230;5.702;2023-02-11T05:27:45;40.20;;;16.73;;
23718;SDS011;43322;52.230;5.702;2023-02-11T05:30:13;39.13;;;16.40;;
23718;SDS011;43322;52.230;5.702;2023-02-11T05:32:41;37.05;;;15.60;;
23718;SDS011;43322;52.230;5.702;2023-02-11T05:35:08;38.97;;;15.70;;
23718;SDS011;43322;52.230;5.702;2023-02-11T05:37:35;46.90;;;16.60;;
23718;SDS011;43322;52.230;5.702;2023-02-11T05:40:02;38.30;;;15.73;;
23718;SDS011;43322;52.230;5.702;2023-02-11T05:42:30;37.45;;;15.57;;
23718;SDS011;43322;52.230;5.702;2023-02-11T05:44:57;40.95;;;16.65;;
23718;SDS011;43322;52.230;5.702;2023-02-11T05:47:24;37.67;;;17.17;;
23718;SDS011;43322;52.230;5.702;2023-02-11T05:49:53;34.65;;;16.67;;
23718;SDS011;43322;52.230;5.702;2023-02-11T05:52:20;42.88;;;17.35;;
23718;SDS011;43322;52.230;5.702;2023-02-11T05:54:47;42.00;;;17.92;;
23718;SDS011;43322;52.230;5.702;2023-02-11T05:57:14;38.35;;;17.48;;
23718;SDS011;43322;52.230;5.702;2023-02-11T05:59:43;43.00;;;18.30;;
23718;SDS011;43322;52.230;5.702;2023-02-11T06:02:10;52.92;;;18.98;;
23718;SDS011;43322;52.230;5.702;2023-02-11T06:04:37;39.35;;;17.90;;
23718;SDS011;43322;52.230;5.702;2023-02-11T06:07:05;50.05;;;19.23;;
23718;SDS011;43322;52.230;5.702;2023-02-11T06:09:33;38.42;;;19.23;;
23718;SDS011;43322;52.230;5.702;2023-02-11T06:12:00;43.63;;;20.55;;
23718;SDS011;43322;52.230;5.702;2023-02-11T06:14:27;44.63;;;20.23;;
23718;SDS011;43322;52.230;5.702;2023-02-11T06:16:53;49.75;;;20.73;;
23718;SDS011;43322;52.230;5.702;2023-02-11T06:19:20;50.08;;;21.20;;
23718;SDS011;43322;52.230;5.702;2023-02-11T06:21:47;50.40;;;20.08;;
23718;SDS011;43322;52.230;5.702;2023-02-11T06:24:15;47.83;;;20.30;;
23718;SDS011;43322;52.230;5.702;2023-02-11T06:26:42;47.80;;;20.23;;
23718;SDS011;43322;52.230;5.702;2023-02-11T06:29:09;51.47;;;22.60;;
23718;SDS011;43322;52.230;5.702;2023-02-11T06:31:37;54.35;;;22.75;;
23718;SDS011;43322;52.230;5.702;2023-02-11T06:34:05;47.92;;;21.77;;
23718;SDS011;43322;52.230;5.702;2023-02-11T06:36:32;59.53;;;24.50;;
23718;SDS011;43322;52.230;5.702;2023-02-11T06:38:59;51.92;;;24.15;;
23718;SDS011;43322;52.230;5.702;2023-02-11T06:41:27;58.72;;;23.40;;
23718;SDS011;43322;52.230;5.702;2023-02-11T06:43:54;53.10;;;24.30;;
23718;SDS011;43322;52.230;5.702;2023-02-11T06:46:21;46.90;;;23.25;;
23718;SDS011;43322;52.230;5.702;2023-02-11T06:48:48;52.88;;;23.20;;
23718;SDS011;43322;52.230;5.702;2023-02-11T06:51:15;56.83;;;23.20;;
23718;SDS011;43322;52.230;5.702;2023-02-11T06:53:44;44.45;;;23.25;;
23718;SDS011;43322;52.230;5.702;2023-02-11T06:56:13;58.92;;;25.02;;
23718;SDS011;43322;52.230;5.702;2023-02-11T06:58:43;61.08;;;25.42;;
23718;SDS011;43322;52.230;5.702;2023-02-11T07:01:11;60.42;;;25.77;;
23718;SDS011;43322;52.230;5.702;2023-02-11T07:03:41;48.08;;;23.10;;
23718;SDS011;43322;52.230;5.702;2023-02-11T07:06:10;59.78;;;23.92;;
23718;SDS011;43322;52.230;5.702;2023-02-11T07:08:39;51.72;;;23.85;;
23718;SDS011;43322;52.230;5.702;2023-02-11T07:11:10;52.60;;;25.35;;
23718;SDS011;43322;52.230;5.702;2023-02-11T07:13:38;59.25;;;24.65;;
23718;SDS011;43322;52.230;5.702;2023-02-11T07:16:07;57.03;;;25.23;;
23718;SDS011;43322;52.230;5.702;2023-02-11T07:18:37;61.30;;;25.95;;
23718;SDS011;43322;52.230;5.702;2023-02-11T07:21:04;55.33;;;24.80;;
23718;SDS011;43322;52.230;5.702;2023-02-11T07:23:32;49.30;;;23.48;;
23718;SDS011;43322;52.230;5.702;2023-02-11T07:26:01;56.75;;;24.90;;
23718;SDS011;43322;52.230;5.702;2023-02-11T07:28:28;57.97;;;25.05;;
23718;SDS011;43322;52.230;5.702;2023-02-11T07:30:55;52.92;;;24.38;;
23718;SDS011;43322;52.230;5.702;2023-02-11T07:33:24;47.45;;;23.73;;
23718;SDS011;43322;52.230;5.702;2023-02-11T07:35:51;59.97;;;25.08;;
23718;SDS011;43322;52.230;5.702;2023-02-11T07:38:18;52.00;;;25.17;;
23718;SDS011;43322;52.230;5.702;2023-02-11T07:40:45;60.58;;;25.40;;
23718;SDS011;43322;52.230;5.702;2023-02-11T07:43:12;60.67;;;26.23;;
23718;SDS011;43322;52.230;5.702;2023-02-11T07:45:39;63.05;;;25.00;;
23718;SDS011;43322;52.230;5.702;2023-02-11T07:48:06;60.35;;;24.65;;
23718;SDS011;43322;52.230;5.702;2023-02-11T07:50:34;65.40;;;26.45;;
23718;SDS011;43322;52.230;5.702;2023-02-11T07:53:01;54.25;;;25.38;;
23718;SDS011;43322;52.230;5.702;2023-02-11T07:55:28;60.83;;;26.67;;
23718;SDS011;43322;52.230;5.702;2023-02-11T07:57:55;53.53;;;25.13;;
23718;SDS011;43322;52.230;5.702;2023-02-11T08:00:22;55.78;;;25.27;;
23718;SDS011;43322;52.230;5.702;2023-02-11T08:02:49;50.55;;;23.98;;
23718;SDS011;43322;52.230;5.702;2023-02-11T08:05:16;52.75;;;24.65;;
23718;SDS011;43322;52.230;5.702;2023-02-11T08:07:45;45.70;;;24.05;;
23718;SDS011;43322;52.230;5.702;2023-02-11T08:10:11;52.90;;;24.58;;
23718;SDS011;43322;52.230;5.702;2023-02-11T08:12:38;46.60;;;24.80;;
23718;SDS011;43322;52.230;5.702;2023-02-11T08:15:05;53.83;;;23.85;;
23718;SDS011;43322;52.230;5.702;2023-02-11T08:17:33;48.47;;;24.08;;
23718;SDS011;43322;52.230;5.702;2023-02-11T08:20:00;50.42;;;25.23;;
23718;SDS011;43322;52.230;5.702;2023-02-11T08:22:29;49.30;;;23.35;;
23718;SDS011;43322;52.230;5.702;2023-02-11T08:24:58;42.70;;;23.25;;
23718;SDS011;43322;52.230;5.702;2023-02-11T08:27:25;48.97;;;23.42;;
23718;SDS011;43322;52.230;5.702;2023-02-11T08:29:52;48.47;;;23.15;;
23718;SDS011;43322;52.230;5.702;2023-02-11T08:32:20;45.38;;;23.08;;
23718;SDS011;43322;52.230;5.702;2023-02-11T08:34:49;45.10;;;23.33;;
23718;SDS011;43322;52.230;5.702;2023-02-11T08:37:16;48.75;;;23.45;;
23718;SDS011;43322;52.230;5.702;2023-02-11T08:39:43;45.80;;;23.15;;
23718;SDS011;43322;52.230;5.702;2023-02-11T08:42:13;46.13;;;22.67;;
23718;SDS011;43322;52.230;5.702;2023-02-11T08:44:40;43.08;;;22.30;;
23718;SDS011;43322;52.230;5.702;2023-02-11T08:47:09;44.25;;;22.75;;
23718;SDS011;43322;52.230;5.702;2023-02-11T08:49:36;45.85;;;23.48;;
23718;SDS011;43322;52.230;5.702;2023-02-11T08:52:03;44.42;;;22.30;;
23718;SDS011;43322;52.230;5.702;2023-02-11T08:54:30;50.80;;;22.45;;
23718;SDS011;43322;52.230;5.702;2023-02-11T08:56:57;45.08;;;22.48;;
23718;SDS011;43322;52.230;5.702;2023-02-11T08:59:27;40.75;;;22.88;;
23718;SDS011;43322;52.230;5.702;2023-02-11T09:01:54;39.85;;;22.15;;
23718;SDS011;43322;52.230;5.702;2023-02-11T09:04:22;46.40;;;22.25;;
23718;SDS011;43322;52.230;5.702;2023-02-11T09:06:49;40.80;;;22.13;;
23718;SDS011;43322;52.230;5.702;2023-02-11T09:09:16;41.72;;;21.83;;
23718;SDS011;43322;52.230;5.702;2023-02-11T09:11:44;40.78;;;22.98;;
23718;SDS011;43322;52.230;5.702;2023-02-11T09:14:14;39.47;;;21.42;;
23718;SDS011;43322;52.230;5.702;2023-02-11T09:16:45;38.05;;;21.55;;
23718;SDS011;43322;52.230;5.702;2023-02-11T09:19:12;36.33;;;19.80;;
23718;SDS011;43322;52.230;5.702;2023-02-11T09:21:39;32.55;;;18.52;;
23718;SDS011;43322;52.230;5.702;2023-02-11T09:24:06;37.33;;;21.13;;
23718;SDS011;43322;52.230;5.702;2023-02-11T09:26:33;35.90;;;20.15;;
23718;SDS011;43322;52.230;5.702;2023-02-11T09:29:02;34.30;;;20.30;;
23718;SDS011;43322;52.230;5.702;2023-02-11T09:31:31;31.25;;;18.85;;
23718;SDS011;43322;52.230;5.702;2023-02-11T09:34:01;39.08;;;19.50;;
23718;SDS011;43322;52.230;5.702;2023-02-11T09:36:30;35.75;;;19.48;;
23718;SDS011;43322;52.230;5.702;2023-02-11T09:38:59;38.45;;;19.35;;
23718;SDS011;43322;52.230;5.702;2023-02-11T09:41:32;36.90;;;19.42;;
23718;SDS011;43322;52.230;5.702;2023-02-11T09:44:06;35.03;;;19.40;;
23718;SDS011;43322;52.230;5.702;2023-02-11T09:46:36;29.58;;;18.27;;
23718;SDS011;43322;52.230;5.702;2023-02-11T09:49:10;37.80;;;20.17;;
23718;SDS011;43322;52.230;5.702;2023-02-11T09:51:43;31.35;;;18.80;;
23718;SDS011;43322;52.230;5.702;2023-02-11T09:54:17;33.22;;;18.70;;
23718;SDS011;43322;52.230;5.702;2023-02-11T09:56:48;32.17;;;17.50;;
23718;SDS011;43322;52.230;5.702;2023-02-11T09:59:15;28.95;;;18.48;;
23718;SDS011;43322;52.230;5.702;2023-02-11T10:01:44;26.73;;;17.55;;
23718;SDS011;43322;52.230;5.702;2023-02-11T10:04:17;27.63;;;17.65;;
23718;SDS011;43322;52.230;5.702;2023-02-11T10:06:56;27.63;;;17.45;;
23718;SDS011;43322;52.230;5.702;2023-02-11T10:09:33;28.15;;;17.70;;
23718;SDS011;43322;52.230;5.702;2023-02-11T10:12:12;31.33;;;16.98;;
23718;SDS011;43322;52.230;5.702;2023-02-11T10:14:58;26.55;;;17.40;;
23718;SDS011;43322;52.230;5.702;2023-02-11T10:17:40;31.45;;;16.88;;
23718;SDS011;43322;52.230;5.702;2023-02-11T10:20:22;29.52;;;16.70;;
23718;SDS011;43322;52.230;5.702;2023-02-11T10:22:55;28.15;;;16.98;;
23718;SDS011;43322;52.230;5.702;2023-02-11T10:25:25;29.90;;;16.75;;
23718;SDS011;43322;52.230;5.702;2023-02-11T10:27:54;28.20;;;17.55;;
23718;SDS011;43322;52.230;5.702;2023-02-11T10:30:25;24.63;;;16.52;;
23718;SDS011;43322;52.230;5.702;2023-02-11T10:32:58;24.95;;;15.88;;
23718;SDS011;43322;52.230;5.702;2023-02-11T10:35:30;26.20;;;16.10;;
23718;SDS011;43322;52.230;5.702;2023-02-11T10:37:57;25.92;;;16.30;;
23718;SDS011;43322;52.230;5.702;2023-02-11T10:40:26;26.25;;;17.02;;
23718;SDS011;43322;52.230;5.702;2023-02-11T10:42:54;23.95;;;16.38;;
23718;SDS011;43322;52.230;5.702;2023-02-11T10:45:27;25.52;;;15.75;;
23718;SDS011;43322;52.230;5.702;2023-02-11T10:47:57;28.13;;;16.15;;
23718;SDS011;43322;52.230;5.702;2023-02-11T10:50:26;26.60;;;15.75;;
23718;SDS011;43322;52.230;5.702;2023-02-11T10:53:09;24.48;;;16.00;;
23718;SDS011;43322;52.230;5.702;2023-02-11T10:55:38;28.50;;;16.67;;
23718;SDS011;43322;52.230;5.702;2023-02-11T10:58:20;23.83;;;15.57;;
23718;SDS011;43322;52.230;5.702;2023-02-11T11:00:50;24.90;;;15.10;;
23718;SDS011;43322;52.230;5.702;2023-02-11T11:03:19;23.67;;;14.60;;
23718;SDS011;43322;52.230;5.702;2023-02-11T11:05:48;23.70;;;15.10;;
23718;SDS011;43322;52.230;5.702;2023-02-11T11:08:18;25.80;;;15.32;;
23718;SDS011;43322;52.230;5.702;2023-02-11T11:10:46;22.20;;;14.90;;
23718;SDS011;43322;52.230;5.702;2023-02-11T11:13:29;23.42;;;15.80;;
23718;SDS011;43322;52.230;5.702;2023-02-11T11:16:08;21.92;;;14.70;;
23718;SDS011;43322;52.230;5.702;2023-02-11T11:18:46;18.83;;;14.18;;
23718;SDS011;43322;52.230;5.702;2023-02-11T11:21:15;26.90;;;15.10;;
23718;SDS011;43322;52.230;5.702;2023-02-11T11:23:47;23.55;;;15.32;;
23718;SDS011;43322;52.230;5.702;2023-02-11T11:26:20;20.85;;;14.75;;
23718;SDS011;43322;52.230;5.702;2023-02-11T11:28:56;32.47;;;15.98;;
23718;SDS011;43322;52.230;5.702;2023-02-11T11:31:27;22.05;;;14.75;;
23718;SDS011;43322;52.230;5.702;2023-02-11T11:33:59;21.05;;;14.30;;
23718;SDS011;43322;52.230;5.702;2023-02-11T11:36:32;23.20;;;14.82;;
23718;SDS011;43322;52.230;5.702;2023-02-11T11:39:16;22.85;;;14.80;;
23718;SDS011;43322;52.230;5.702;2023-02-11T11:41:50;23.73;;;14.18;;
23718;SDS011;43322;52.230;5.702;2023-02-11T11:44:22;20.42;;;14.35;;
23718;SDS011;43322;52.230;5.702;2023-02-11T11:46:53;19.50;;;13.18;;
23718;SDS011;43322;52.230;5.702;2023-02-11T11:52:52;21.00;;;13.32;;
23718;SDS011;43322;52.230;5.702;2023-02-11T11:55:28;18.60;;;12.02;;
23718;SDS011;43322;52.230;5.702;2023-02-11T11:57:59;17.95;;;13.07;;
23718;SDS011;43322;52.230;5.702;2023-02-11T12:00:29;21.30;;;13.43;;
23718;SDS011;43322;52.230;5.702;2023-02-11T12:03:03;22.25;;;12.07;;
23718;SDS011;43322;52.230;5.702;2023-02-11T12:05:57;19.80;;;13.25;;
23718;SDS011;43322;52.230;5.702;2023-02-11T12:08:38;17.40;;;12.27;;
23718;SDS011;43322;52.230;5.702;2023-02-11T12:11:16;16.42;;;12.00;;
23718;SDS011;43322;52.230;5.702;2023-02-11T12:13:58;17.67;;;12.73;;
23718;SDS011;43322;52.230;5.702;2023-02-11T12:16:35;15.48;;;12.35;;
23718;SDS011;43322;52.230;5.702;2023-02-11T12:22:08;16.05;;;11.63;;
23718;SDS011;43322;52.230;5.702;2023-02-11T12:24:40;18.98;;;11.90;;
23718;SDS011;43322;52.230;5.702;2023-02-11T12:27:20;18.38;;;11.85;;
23718;SDS011;43322;52.230;5.702;2023-02-11T12:30:00;19.55;;;12.13;;
23718;SDS011;43322;52.230;5.702;2023-02-11T12:32:35;17.23;;;11.85;;
23718;SDS011;43322;52.230;5.702;2023-02-11T12:35:17;22.10;;;11.25;;
23718;SDS011;43322;52.230;5.702;2023-02-11T12:38:17;19.25;;;11.43;;
23718;SDS011;43322;52.230;5.702;2023-02-11T12:40:57;14.35;;;11.23;;
23718;SDS011;43322;52.230;5.702;2023-02-11T12:43:36;17.90;;;10.82;;
23718;SDS011;43322;52.230;5.702;2023-02-11T12:46:13;11.32;;;10.02;;
23718;SDS011;43322;52.230;5.702;2023-02-11T12:49:01;11.68;;;9.60;;
23718;SDS011;43322;52.230;5.702;2023-02-11T12:51:44;14.50;;;9.07;;
23718;SDS011;43322;52.230;5.702;2023-02-11T12:54:20;12.25;;;9.30;;
23718;SDS011;43322;52.230;5.702;2023-02-11T12:56:51;14.50;;;9.85;;
23718;SDS011;43322;52.230;5.702;2023-02-11T12:59:30;11.15;;;9.15;;
23718;SDS011;43322;52.230;5.702;2023-02-11T13:02:05;15.48;;;9.13;;
23718;SDS011;43322;52.230;5.702;2023-02-11T13:04:45;10.63;;;8.93;;
23718;SDS011;43322;52.230;5.702;2023-02-11T13:07:17;11.63;;;9.25;;
23718;SDS011;43322;52.230;5.702;2023-02-11T13:09:49;11.63;;;9.10;;
23718;SDS011;43322;52.230;5.702;2023-02-11T13:12:20;9.73;;;7.97;;
23718;SDS011;43322;52.230;5.702;2023-02-11T13:15:08;13.07;;;9.00;;
23718;SDS011;43322;52.230;5.702;2023-02-11T13:17:42;11.27;;;8.50;;
23718;SDS011;43322;52.230;5.702;2023-02-11T13:20:14;11.73;;;8.68;;
23718;SDS011;43322;52.230;5.702;2023-02-11T13:22:49;10.10;;;8.30;;
23718;SDS011;43322;52.230;5.702;2023-02-11T13:25:24;14.43;;;8.77;;
23718;SDS011;43322;52.230;5.702;2023-02-11T13:27:58;12.60;;;9.15;;
23718;SDS011;43322;52.230;5.702;2023-02-11T13:30:34;11.88;;;8.93;;
23718;SDS011;43322;52.230;5.702;2023-02-11T13:33:18;9.60;;;8.35;;
23718;SDS011;43322;52.230;5.702;2023-02-11T13:36:09;9.02;;;8.02;;
23718;SDS011;43322;52.230;5.702;2023-02-11T13:38:50;17.55;;;8.68;;
23718;SDS011;43322;52.230;5.702;2023-02-11T13:41:20;12.30;;;8.40;;
23718;SDS011;43322;52.230;5.702;2023-02-11T13:43:58;12.30;;;7.72;;
23718;SDS011;43322;52.230;5.702;2023-02-11T13:49:18;14.10;;;8.45;;
23718;SDS011;43322;52.230;5.702;2023-02-11T13:51:48;8.95;;;7.13;;
23718;SDS011;43322;52.230;5.702;2023-02-11T13:54:18;10.93;;;8.38;;
23718;SDS011;43322;52.230;5.702;2023-02-11T13:59:50;10.27;;;7.97;;
23718;SDS011;43322;52.230;5.702;2023-02-11T14:02:23;8.30;;;6.82;;
23718;SDS011;43322;52.230;5.702;2023-02-11T14:05:23;11.02;;;7.53;;
23718;SDS011;43322;52.230;5.702;2023-02-11T14:08:12;19.73;;;8.18;;
23718;SDS011;43322;52.230;5.702;2023-02-11T14:10:58;9.88;;;7.93;;
23718;SDS011;43322;52.230;5.702;2023-02-11T14:13:27;11.55;;;8.48;;
23718;SDS011;43322;52.230;5.702;2023-02-11T14:16:05;10.45;;;8.05;;
23718;SDS011;43322;52.230;5.702;2023-02-11T14:18:40;11.82;;;8.23;;
23718;SDS011;43322;52.230;5.702;2023-02-11T14:21:29;10.93;;;8.63;;
23718;SDS011;43322;52.230;5.702;2023-02-11T14:27:03;10.13;;;8.40;;
23718;SDS011;43322;52.230;5.702;2023-02-11T14:29:34;12.90;;;8.70;;
23718;SDS011;43322;52.230;5.702;2023-02-11T14:32:08;9.73;;;7.75;;
23718;SDS011;43322;52.230;5.702;2023-02-11T14:34:48;13.32;;;8.93;;
23718;SDS011;43322;52.230;5.702;2023-02-11T14:37:25;9.40;;;8.10;;
23718;SDS011;43322;52.230;5.702;2023-02-11T14:40:04;10.40;;;8.18;;
23718;SDS011;43322;52.230;5.702;2023-02-11T14:42:39;13.20;;;8.63;;
23718;SDS011;43322;52.230;5.702;2023-02-11T14:45:07;12.23;;;8.70;;
23718;SDS011;43322;52.230;5.702;2023-02-11T14:47:39;13.27;;;8.50;;
23718;SDS011;43322;52.230;5.702;2023-02-11T14:50:13;10.57;;;8.05;;
23718;SDS011;43322;52.230;5.702;2023-02-11T14:52:43;10.52;;;8.02;;
23718;SDS011;43322;52.230;5.702;2023-02-11T14:55:13;14.35;;;8.80;;
23718;SDS011;43322;52.230;5.702;2023-02-11T14:57:46;11.77;;;8.13;;
23718;SDS011;43322;52.230;5.702;2023-02-11T15:00:16;9.98;;;8.80;;
23718;SDS011;43322;52.230;5.702;2023-02-11T15:02:45;11.02;;;8.68;;
23718;SDS011;43322;52.230;5.702;2023-02-11T15:05:15;10.80;;;8.13;;
23718;SDS011;43322;52.230;5.702;2023-02-11T15:07:45;11.77;;;8.55;;
23718;SDS011;43322;52.230;5.702;2023-02-11T15:10:18;13.88;;;7.60;;
23718;SDS011;43322;52.230;5.702;2023-02-11T15:12:51;11.25;;;7.97;;